Algood, Tennessee
Current Conditions -  °F | °C
As of 6:15 PM on Wednesday 22 Oct 2014 (Local Time) from KSRB Reporting Station
Clear Clear  
Wind Chill: 12°   Ceiling: Unl
Heat Index: 12°   Visibility: 10mi
Dew Point:   Wind: 3mph
Humidity: 67%   Direction: 40°NE
Pressure: 30.18"   Gusts: NA
Location:  36.1802°N, 85.4582°W
Report Text: KSRB 222315Z AUTO 04003KT 10SM CLR 12/06 A3018 RMK
Loading
Personal Weather Stations






























Interactive Weather Map
Tropical Storm Tracking
New forecast layout! Learn more

10-Day Weather Forecast

Advertisements
Track Severe Weather on mobile